Time;durP1;ratioP1;P1;durP2;ratioP2;P2;SDS_P1;SDS_P2;PMS_P1;PMS_P2;Temp;Humidity;BMP_temperature;BMP_pressure;BME280_temperature;BME280_humidity;BME280_pressure;Samples;Min_cycle;Max_cycle;Signal;HPM_P1;HPM_P2
2020/12/16 00:00:33;;;;;;;19.67;12.17;;;9.00;99.90;;;;;;4979365;28;20454;-71
2020/12/16 00:02:59;;;;;;;23.33;13.73;;;9.00;99.90;;;;;;4979626;28;20459;-70
2020/12/16 00:05:26;;;;;;;24.10;14.13;;;9.10;99.90;;;;;;4979602;28;20450;-70
2020/12/16 00:07:52;;;;;;;23.93;13.30;;;9.00;99.90;;;;;;4979099;28;20462;-71
2020/12/16 00:10:18;;;;;;;23.10;13.13;;;9.00;99.90;;;;;;4979469;28;20451;-70
2020/12/16 00:12:45;;;;;;;19.30;13.03;;;9.00;99.90;;;;;;4979583;28;20526;-70
2020/12/16 00:15:12;;;;;;;21.53;12.43;;;8.90;99.90;;;;;;4979548;28;20478;-70
2020/12/16 00:17:38;;;;;;;20.53;12.67;;;9.00;99.90;;;;;;4979375;28;20849;-71
2020/12/16 00:20:07;;;;;;;19.37;12.87;;;9.00;99.90;;;;;;4979188;28;20447;-70
2020/12/16 00:22:38;;;;;;;19.00;12.70;;;9.00;99.90;;;;;;4979193;28;20860;-70
2020/12/16 00:25:06;;;;;;;22.50;13.43;;;9.00;99.90;;;;;;4979083;28;20459;-70
2020/12/16 00:27:32;;;;;;;19.37;13.07;;;8.90;99.90;;;;;;4979833;28;20843;-70
2020/12/16 00:29:59;;;;;;;19.20;12.30;;;8.90;99.90;;;;;;4978688;28;20459;-70
2020/12/16 00:32:26;;;;;;;24.30;14.30;;;8.90;99.90;;;;;;4979188;28;20852;-70
2020/12/16 00:34:52;;;;;;;22.50;14.20;;;8.90;99.90;;;;;;4979145;28;20469;-70
2020/12/16 00:37:19;;;;;;;20.50;12.43;;;8.90;99.90;;;;;;4979432;28;20613;-70
2020/12/16 00:39:48;;;;;;;19.70;13.20;;;8.90;99.90;;;;;;4979089;28;20551;-71
2020/12/16 00:42:15;;;;;;;19.33;12.47;;;8.90;99.90;;;;;;4979330;28;20545;-71
2020/12/16 00:44:41;;;;;;;20.70;13.40;;;8.90;99.90;;;;;;4979035;28;20537;-70
2020/12/16 00:47:08;;;;;;;22.60;12.60;;;8.80;99.90;;;;;;4978757;28;20554;-70
2020/12/16 00:49:35;;;;;;;19.83;12.30;;;8.90;99.90;;;;;;4978958;28;20530;-71
2020/12/16 00:52:01;;;;;;;19.87;12.47;;;8.90;99.90;;;;;;4978304;28;20512;-71
2020/12/16 00:54:27;;;;;;;18.93;11.90;;;8.90;99.90;;;;;;4978669;28;20443;-70
2020/12/16 00:56:54;;;;;;;21.57;13.10;;;9.00;99.90;;;;;;4978614;28;20486;-69
2020/12/16 00:59:21;;;;;;;20.80;13.10;;;9.00;99.90;;;;;;4978569;28;20538;-71
2020/12/16 01:01:47;;;;;;;18.73;12.30;;;9.00;99.90;;;;;;4978565;28;20517;-70
2020/12/16 01:04:13;;;;;;;20.43;12.47;;;9.00;99.90;;;;;;4979850;28;20474;-71
2020/12/16 01:06:40;;;;;;;19.23;12.90;;;9.00;99.90;;;;;;4978436;28;20483;-70
2020/12/16 01:09:07;;;;;;;18.30;12.47;;;9.00;99.90;;;;;;4978845;28;20516;-70
2020/12/16 01:11:35;;;;;;;20.30;11.40;;;9.00;99.90;;;;;;4978634;28;20502;-71
2020/12/16 01:14:02;;;;;;;17.83;13.30;;;9.00;99.90;;;;;;4978182;28;20455;-70
2020/12/16 01:16:34;;;;;;;18.23;12.03;;;9.00;99.90;;;;;;4978453;28;20769;-70
2020/12/16 01:19:00;;;;;;;22.17;13.43;;;9.00;99.90;;;;;;4978404;28;20427;-70
2020/12/16 01:21:27;;;;;;;20.37;13.83;;;9.00;99.90;;;;;;4978365;28;20498;-70
2020/12/16 01:23:54;;;;;;;20.80;13.27;;;9.00;99.90;;;;;;4978396;28;20565;-70
2020/12/16 01:26:20;;;;;;;20.47;13.80;;;9.00;99.90;;;;;;4978166;28;20923;-70
2020/12/16 01:28:47;;;;;;;20.77;12.67;;;9.10;99.90;;;;;;4978512;28;20529;-69
2020/12/16 01:31:13;;;;;;;20.43;13.03;;;9.10;99.90;;;;;;4978500;28;20554;-70
2020/12/16 01:33:39;;;;;;;22.37;13.80;;;9.00;99.90;;;;;;4978111;28;20844;-71
2020/12/16 01:36:07;;;;;;;19.20;12.17;;;9.00;99.90;;;;;;4978102;28;20551;-70
2020/12/16 01:38:35;;;;;;;20.47;12.90;;;9.00;99.90;;;;;;4978452;28;20546;-70
2020/12/16 01:41:06;;;;;;;20.07;13.10;;;9.00;99.90;;;;;;4977834;28;20554;-70
2020/12/16 01:43:37;;;;;;;17.67;11.87;;;9.00;99.90;;;;;;4978300;28;20450;-69
2020/12/16 01:46:04;;;;;;;16.20;11.87;;;9.10;99.90;;;;;;4981560;28;20506;-70
2020/12/16 01:48:31;;;;;;;26.93;14.60;;;9.10;99.90;;;;;;4981753;28;20858;-70
2020/12/16 01:50:57;;;;;;;22.70;12.53;;;9.10;99.90;;;;;;4981996;28;20590;-70
2020/12/16 01:53:26;;;;;;;18.10;11.80;;;9.10;99.90;;;;;;4982092;28;20534;-70
2020/12/16 01:55:54;;;;;;;19.47;11.57;;;9.10;99.90;;;;;;4982245;28;20454;-70
2020/12/16 01:58:23;;;;;;;20.60;12.23;;;9.10;99.90;;;;;;4982296;28;20439;-71
2020/12/16 02:00:52;;;;;;;20.10;13.50;;;9.20;99.90;;;;;;4981474;28;20791;-70
2020/12/16 02:03:21;;;;;;;26.83;13.10;;;9.20;99.90;;;;;;4981578;28;20454;-71
2020/12/16 02:05:51;;;;;;;21.37;13.60;;;9.20;99.90;;;;;;4981647;28;20891;-71
2020/12/16 02:08:20;;;;;;;20.33;12.03;;;9.20;99.90;;;;;;4981979;28;20455;-71
2020/12/16 02:10:47;;;;;;;22.40;14.17;;;9.20;99.90;;;;;;4981959;28;20447;-70
2020/12/16 02:13:14;;;;;;;21.17;13.40;;;9.20;99.90;;;;;;4981402;28;20448;-71
2020/12/16 02:15:41;;;;;;;22.93;13.77;;;9.20;99.90;;;;;;4981676;28;20891;-71
2020/12/16 02:18:09;;;;;;;19.43;12.87;;;9.30;99.90;;;;;;4983286;28;20534;-72
2020/12/16 02:20:35;;;;;;;20.27;11.30;;;9.30;99.90;;;;;;4981373;28;20558;-71
2020/12/16 02:23:08;;;;;;;17.47;11.70;;;9.30;99.90;;;;;;4980793;28;20463;-69
2020/12/16 02:25:35;;;;;;;20.37;11.83;;;9.40;99.90;;;;;;4981540;28;20446;-70
2020/12/16 02:28:02;;;;;;;25.63;12.57;;;9.30;99.90;;;;;;4981838;28;20443;-70
2020/12/16 02:30:28;;;;;;;19.70;12.70;;;9.30;99.90;;;;;;4981732;28;20629;-70
2020/12/16 02:32:54;;;;;;;21.43;12.90;;;9.30;99.90;;;;;;4981553;28;20575;-71
2020/12/16 02:35:22;;;;;;;24.47;13.63;;;9.30;99.90;;;;;;4981106;28;20526;-71
2020/12/16 02:37:48;;;;;;;19.10;11.20;;;9.30;99.90;;;;;;4981186;28;20473;-71
2020/12/16 02:40:15;;;;;;;21.60;13.10;;;9.30;99.90;;;;;;4980900;28;20939;-70
2020/12/16 02:42:42;;;;;;;21.70;13.30;;;9.40;99.90;;;;;;4981401;28;20543;-70
2020/12/16 02:45:09;;;;;;;19.73;11.70;;;9.30;99.90;;;;;;4980518;28;20467;-71
2020/12/16 02:47:35;;;;;;;21.53;13.20;;;9.40;99.90;;;;;;4981116;28;20979;-71
2020/12/16 02:50:02;;;;;;;22.23;13.60;;;9.40;99.90;;;;;;4980979;28;20450;-71
2020/12/16 02:52:28;;;;;;;27.57;13.83;;;9.40;99.90;;;;;;4980703;28;20470;-71
2020/12/16 02:54:55;;;;;;;26.63;13.30;;;9.40;99.90;;;;;;4980202;28;20454;-70
2020/12/16 02:57:21;;;;;;;21.90;13.57;;;9.30;99.90;;;;;;4980489;28;20522;-70
2020/12/16 02:59:55;;;;;;;24.80;14.60;;;9.30;99.90;;;;;;4980547;28;20612;-71
2020/12/16 03:02:22;;;;;;;24.40;14.00;;;9.30;99.90;;;;;;4980191;28;20489;-71
2020/12/16 03:04:48;;;;;;;21.80;14.20;;;9.40;99.90;;;;;;4980269;28;20820;-71
2020/12/16 03:07:15;;;;;;;21.73;14.50;;;9.40;99.90;;;;;;4980038;28;20550;-71
2020/12/16 03:09:41;;;;;;;23.40;12.70;;;9.40;99.90;;;;;;4979579;28;20846;-70
2020/12/16 03:12:07;;;;;;;20.80;13.10;;;9.40;99.90;;;;;;4979012;28;20443;-70
2020/12/16 03:14:34;;;;;;;22.80;12.87;;;9.50;99.90;;;;;;4979117;28;20556;-70
2020/12/16 03:17:01;;;;;;;21.40;12.90;;;9.50;99.90;;;;;;4979135;28;20450;-71
2020/12/16 03:19:27;;;;;;;19.00;12.17;;;9.50;99.90;;;;;;4979706;28;20530;-71
2020/12/16 03:21:54;;;;;;;22.37;12.50;;;9.50;99.90;;;;;;4979740;28;20889;-71
2020/12/16 03:24:21;;;;;;;25.97;13.37;;;9.50;99.90;;;;;;4980505;28;20841;-71
2020/12/16 03:26:47;;;;;;;21.07;12.30;;;9.50;99.90;;;;;;4980165;28;20443;-71
2020/12/16 03:29:14;;;;;;;24.07;13.20;;;9.50;99.90;;;;;;4979994;28;20483;-71
2020/12/16 03:31:40;;;;;;;23.07;13.33;;;9.50;99.90;;;;;;4980058;28;20493;-70
2020/12/16 03:34:08;;;;;;;21.50;14.30;;;9.40;99.90;;;;;;4980360;28;20962;-72
2020/12/16 03:36:34;;;;;;;23.47;13.23;;;9.50;99.90;;;;;;4980418;28;20549;-71
2020/12/16 03:41:59;;;;;;;18.97;12.23;;;9.50;99.90;;;;;;4997092;28;20524;-71
2020/12/16 03:44:25;;;;;;;20.60;12.53;;;9.40;99.90;;;;;;4998890;28;20934;-70
2020/12/16 03:46:52;;;;;;;19.67;11.77;;;9.50;99.90;;;;;;4998859;28;20462;-70
2020/12/16 03:49:19;;;;;;;24.07;13.73;;;9.50;99.90;;;;;;4999008;28;20545;-71
2020/12/16 03:51:46;;;;;;;24.00;14.23;;;9.50;99.90;;;;;;4998269;28;20588;-71
2020/12/16 03:54:12;;;;;;;20.73;12.00;;;9.50;99.90;;;;;;4998358;28;20458;-71
2020/12/16 03:56:39;;;;;;;24.90;14.00;;;9.50;99.90;;;;;;4999186;28;20446;-71
2020/12/16 03:59:05;;;;;;;21.20;13.27;;;9.50;99.90;;;;;;4998746;28;20488;-71
2020/12/16 04:01:31;;;;;;;27.63;15.20;;;9.50;99.90;;;;;;4998721;28;20819;-71
2020/12/16 04:03:58;;;;;;;22.00;13.27;;;9.50;99.90;;;;;;4999166;28;20597;-72
2020/12/16 04:06:25;;;;;;;25.13;14.37;;;9.50;99.90;;;;;;4998847;28;20446;-71
2020/12/16 04:08:51;;;;;;;20.40;13.37;;;9.60;99.90;;;;;;4998488;28;20842;-71
2020/12/16 04:11:18;;;;;;;20.93;13.47;;;9.60;99.90;;;;;;4998196;28;20489;-71
2020/12/16 04:13:45;;;;;;;29.97;14.27;;;9.50;99.90;;;;;;4998700;28;20458;-71
2020/12/16 04:16:15;;;;;;;24.10;14.53;;;9.60;99.90;;;;;;4998265;28;20501;-71
2020/12/16 04:18:42;;;;;;;27.00;15.70;;;9.60;99.90;;;;;;4997860;28;20445;-71
2020/12/16 04:21:09;;;;;;;27.03;14.90;;;9.60;99.90;;;;;;4998640;28;20479;-71
2020/12/16 04:23:36;;;;;;;26.93;15.57;;;9.60;99.90;;;;;;4998218;28;20472;-71
2020/12/16 04:26:03;;;;;;;25.00;14.53;;;9.60;99.90;;;;;;4998501;28;20887;-71
2020/12/16 04:28:30;;;;;;;26.50;16.40;;;9.60;99.90;;;;;;4998290;28;20478;-71
2020/12/16 04:30:56;;;;;;;26.00;15.00;;;9.60;99.90;;;;;;4997867;28;20458;-71
2020/12/16 04:33:23;;;;;;;23.57;14.57;;;9.50;99.90;;;;;;4997987;28;20442;-71
2020/12/16 04:35:49;;;;;;;23.23;13.77;;;9.50;99.90;;;;;;4998419;28;20446;-71
2020/12/16 04:38:16;;;;;;;26.60;15.63;;;9.50;99.90;;;;;;4997667;28;20556;-71
2020/12/16 04:40:43;;;;;;;22.20;14.37;;;9.50;99.90;;;;;;4997888;28;20528;-71
2020/12/16 04:43:11;;;;;;;27.63;13.17;;;9.60;99.90;;;;;;4998109;28;20536;-71
2020/12/16 04:45:39;;;;;;;21.20;13.80;;;9.50;99.90;;;;;;4998232;28;20489;-71
2020/12/16 04:48:07;;;;;;;25.93;14.40;;;9.50;99.90;;;;;;4998373;28;20458;-72
2020/12/16 04:50:33;;;;;;;27.40;13.47;;;9.60;99.90;;;;;;4997364;28;20465;-71
2020/12/16 04:53:02;;;;;;;28.67;14.83;;;9.60;99.90;;;;;;4997425;28;20516;-70
2020/12/16 04:55:29;;;;;;;24.60;14.00;;;9.60;99.90;;;;;;4997676;28;20572;-71
2020/12/16 04:57:57;;;;;;;30.20;15.27;;;9.60;99.90;;;;;;4997647;28;20963;-71
2020/12/16 05:00:24;;;;;;;30.00;15.33;;;9.60;99.90;;;;;;4997444;28;20544;-71
2020/12/16 05:02:53;;;;;;;29.20;14.73;;;9.60;99.90;;;;;;4997361;28;20580;-71
2020/12/16 05:05:20;;;;;;;24.10;14.30;;;9.60;99.90;;;;;;4997125;28;20540;-71
2020/12/16 05:07:48;;;;;;;24.53;14.40;;;9.60;99.90;;;;;;4997868;28;20527;-72
2020/12/16 05:10:16;;;;;;;30.03;15.73;;;9.60;99.90;;;;;;4995128;28;20450;-70
2020/12/16 05:12:43;;;;;;;25.77;14.90;;;9.60;99.90;;;;;;4995247;28;20473;-71
2020/12/16 05:15:23;;;;;;;26.60;16.67;;;9.60;99.90;;;;;;4996146;28;20482;-71
2020/12/16 05:18:04;;;;;;;25.20;14.70;;;9.60;99.90;;;;;;4996534;28;20533;-71
2020/12/16 05:20:31;;;;;;;33.60;16.27;;;9.70;99.90;;;;;;4999358;28;20497;-71
2020/12/16 05:23:00;;;;;;;25.30;14.60;;;9.60;99.90;;;;;;4998497;28;20493;-71
2020/12/16 05:25:26;;;;;;;23.23;13.43;;;9.60;99.90;;;;;;4998621;28;20461;-72
2020/12/16 05:27:53;;;;;;;31.53;15.40;;;9.60;99.90;;;;;;4998593;28;20512;-71
2020/12/16 05:30:19;;;;;;;25.47;15.13;;;9.60;99.90;;;;;;4998773;28;20657;-72
2020/12/16 05:32:47;;;;;;;31.37;18.13;;;9.70;99.90;;;;;;4998803;28;20818;-71
2020/12/16 05:35:31;;;;;;;26.30;15.50;;;9.70;99.90;;;;;;4998694;28;20854;-71
2020/12/16 05:38:05;;;;;;;25.57;14.67;;;9.70;99.90;;;;;;4998561;28;20454;-71
2020/12/16 05:40:33;;;;;;;25.53;15.37;;;9.70;99.90;;;;;;4999758;28;20572;-71
2020/12/16 05:43:00;;;;;;;25.13;14.80;;;9.70;99.90;;;;;;4999828;28;20549;-72
2020/12/16 05:45:28;;;;;;;24.83;15.50;;;9.70;99.90;;;;;;4999640;28;21014;-70
2020/12/16 05:48:03;;;;;;;30.47;15.93;;;9.70;99.90;;;;;;4999614;28;20508;-71
2020/12/16 05:50:33;;;;;;;29.47;15.67;;;9.70;99.90;;;;;;5000097;28;20449;-72
2020/12/16 05:53:10;;;;;;;30.87;15.93;;;9.70;99.90;;;;;;4999645;28;20541;-72
2020/12/16 05:55:37;;;;;;;28.27;13.80;;;9.70;99.90;;;;;;5000139;28;20450;-72
2020/12/16 05:58:08;;;;;;;30.53;15.07;;;9.70;99.90;;;;;;4999381;28;20481;-72
2020/12/16 06:00:49;;;;;;;21.40;14.20;;;9.70;99.90;;;;;;4999981;28;20461;-71
2020/12/16 06:03:22;;;;;;;24.27;14.47;;;9.70;99.90;;;;;;4997916;28;20481;-73
2020/12/16 06:05:53;;;;;;;30.10;17.27;;;9.70;99.90;;;;;;4999895;28;20426;-72
2020/12/16 06:08:20;;;;;;;31.13;16.20;;;9.70;99.90;;;;;;5000374;28;20501;-71
2020/12/16 06:10:49;;;;;;;25.43;15.10;;;9.70;99.90;;;;;;5000841;28;20545;-70
2020/12/16 06:13:16;;;;;;;28.37;14.80;;;9.70;99.90;;;;;;4998117;28;20526;-71
2020/12/16 06:16:02;;;;;;;28.73;15.10;;;9.70;99.90;;;;;;4999439;28;20927;-71
2020/12/16 06:18:32;;;;;;;27.17;15.40;;;9.70;99.90;;;;;;5000086;28;20471;-72
2020/12/16 06:20:59;;;;;;;30.40;15.90;;;9.80;99.90;;;;;;4999074;28;20861;-71
2020/12/16 06:23:29;;;;;;;26.50;16.40;;;9.80;99.90;;;;;;4999101;28;20531;-71
2020/12/16 06:25:57;;;;;;;24.40;13.00;;;9.80;99.90;;;;;;4998743;28;20952;-71
2020/12/16 06:28:24;;;;;;;26.50;14.03;;;9.80;99.90;;;;;;4999166;28;20853;-71
2020/12/16 06:30:54;;;;;;;31.27;15.83;;;9.90;99.90;;;;;;4998349;28;20938;-71
2020/12/16 06:33:28;;;;;;;31.43;15.70;;;9.90;99.90;;;;;;4998808;28;20533;-71
2020/12/16 06:36:05;;;;;;;26.60;14.90;;;9.90;99.90;;;;;;4998744;28;20434;-72
2020/12/16 06:38:40;;;;;;;28.63;14.97;;;9.90;99.90;;;;;;4998713;28;20500;-71
2020/12/16 06:41:12;;;;;;;30.03;15.10;;;10.00;99.90;;;;;;4998455;28;20538;-71
2020/12/16 06:43:40;;;;;;;27.47;14.17;;;10.00;99.90;;;;;;4999163;28;20520;-71
2020/12/16 06:46:46;;;;;;;27.40;15.10;;;10.00;99.90;;;;;;4998689;28;20986;-72
2020/12/16 06:49:38;;;;;;;28.83;16.00;;;10.00;99.90;;;;;;4998827;28;20517;-71
2020/12/16 06:52:08;;;;;;;29.80;15.73;;;10.00;99.90;;;;;;4997029;28;20442;-72
2020/12/16 06:54:44;;;;;;;31.53;18.90;;;10.00;99.90;;;;;;4997842;28;20446;-72
2020/12/16 06:57:18;;;;;;;31.83;16.30;;;10.00;99.90;;;;;;4998575;28;20464;-71
2020/12/16 06:59:49;;;;;;;32.93;14.93;;;10.00;99.90;;;;;;4998648;28;20532;-71
2020/12/16 07:02:22;;;;;;;23.97;14.27;;;10.00;99.90;;;;;;4998353;28;20975;-71
2020/12/16 07:04:49;;;;;;;31.27;15.93;;;10.00;99.90;;;;;;4998795;28;20445;-71
2020/12/16 07:07:45;;;;;;;29.27;16.37;;;10.00;99.90;;;;;;4998200;28;20446;-71
2020/12/16 07:10:42;;;;;;;23.30;15.13;;;10.10;99.90;;;;;;4997905;28;20494;-70
2020/12/16 07:13:16;;;;;;;31.57;16.60;;;10.10;99.90;;;;;;4998049;28;20493;-71
2020/12/16 07:15:45;;;;;;;26.10;15.40;;;10.10;99.90;;;;;;4997381;28;20848;-72
2020/12/16 07:18:40;;;;;;;27.50;17.00;;;10.10;99.90;;;;;;4998003;28;20445;-72
2020/12/16 07:21:27;;;;;;;27.67;15.53;;;10.10;99.90;;;;;;4997524;28;20434;-70
2020/12/16 07:23:58;;;;;;;31.97;16.43;;;10.10;99.90;;;;;;4997901;28;20457;-72
2020/12/16 07:26:27;;;;;;;26.27;15.87;;;10.20;99.90;;;;;;4997854;28;20545;-72
2020/12/16 07:28:54;;;;;;;29.07;14.37;;;10.20;99.90;;;;;;4997785;28;20462;-72
2020/12/16 07:31:21;;;;;;;25.80;15.07;;;10.20;99.90;;;;;;4998052;28;20464;-70
2020/12/16 07:33:48;;;;;;;24.53;16.20;;;10.20;99.90;;;;;;4999072;28;20489;-71
2020/12/16 07:36:16;;;;;;;29.03;17.00;;;10.20;99.90;;;;;;4998781;28;20540;-72
2020/12/16 07:38:51;;;;;;;23.50;14.90;;;10.20;99.90;;;;;;4998761;28;20454;-73
2020/12/16 07:41:29;;;;;;;25.43;13.33;;;10.20;99.90;;;;;;4997089;28;20539;-73
2020/12/16 07:43:58;;;;;;;28.40;14.80;;;10.20;99.90;;;;;;4997582;28;20454;-72
2020/12/16 07:46:25;;;;;;;30.03;15.70;;;10.20;99.90;;;;;;4997690;28;20570;-72
2020/12/16 07:48:52;;;;;;;28.07;15.63;;;10.20;99.90;;;;;;4997955;28;20928;-71
2020/12/16 07:51:19;;;;;;;26.10;16.33;;;10.20;99.90;;;;;;4997508;28;20575;-73
2020/12/16 07:53:48;;;;;;;26.77;16.43;;;10.20;99.90;;;;;;4997413;28;20458;-73
2020/12/16 07:56:16;;;;;;;28.00;15.43;;;10.20;99.90;;;;;;4996595;28;20505;-73
2020/12/16 07:58:44;;;;;;;28.93;15.00;;;10.20;99.90;;;;;;4998244;28;20528;-70
2020/12/16 08:01:12;;;;;;;29.47;15.47;;;10.30;99.90;;;;;;4998260;28;20477;-69
2020/12/16 08:03:41;;;;;;;28.90;17.00;;;10.30;99.90;;;;;;4997238;28;20446;-70
2020/12/16 08:06:08;;;;;;;28.33;16.80;;;10.30;99.90;;;;;;4998278;28;20481;-70
2020/12/16 08:08:43;;;;;;;37.57;22.63;;;10.30;99.90;;;;;;4998862;28;20557;-70
2020/12/16 08:11:15;;;;;;;29.20;17.00;;;10.40;99.90;;;;;;4995763;28;20468;-73
2020/12/16 08:13:41;;;;;;;28.93;17.43;;;10.40;99.90;;;;;;4995647;28;20894;-72
2020/12/16 08:16:09;;;;;;;28.77;17.20;;;10.40;99.90;;;;;;4995591;28;20504;-70
2020/12/16 08:18:38;;;;;;;30.87;16.83;;;10.40;99.90;;;;;;4993731;28;20918;-68
2020/12/16 08:21:15;;;;;;;31.27;17.23;;;10.40;99.90;;;;;;4995592;28;20478;-70
2020/12/16 08:23:42;;;;;;;30.30;17.43;;;10.50;99.90;;;;;;4996817;28;20456;-70
2020/12/16 08:26:09;;;;;;;31.83;16.00;;;10.50;99.90;;;;;;4997130;28;20510;-70
2020/12/16 08:28:35;;;;;;;48.03;17.30;;;10.50;99.90;;;;;;4996324;28;20457;-70
2020/12/16 08:31:04;;;;;;;32.47;17.20;;;10.50;99.90;;;;;;4997180;28;20508;-70
2020/12/16 08:33:32;;;;;;;39.50;18.37;;;10.50;99.90;;;;;;4996696;28;20524;-70
2020/12/16 08:36:02;;;;;;;30.90;17.53;;;10.50;99.90;;;;;;4995863;28;20449;-69
2020/12/16 08:38:30;;;;;;;24.80;16.10;;;10.60;99.90;;;;;;4998462;28;20504;-70
2020/12/16 08:40:58;;;;;;;26.83;16.97;;;10.60;99.90;;;;;;4997244;28;20545;-70
2020/12/16 08:43:29;;;;;;;31.50;17.53;;;10.60;99.90;;;;;;4998780;28;21028;-69
2020/12/16 08:46:00;;;;;;;30.13;15.73;;;10.60;99.90;;;;;;4998564;28;20466;-70
2020/12/16 08:48:26;;;;;;;35.57;17.13;;;10.60;99.90;;;;;;4998515;28;20452;-69
2020/12/16 08:51:08;;;;;;;30.73;16.47;;;10.70;99.90;;;;;;4998831;28;20449;-69
2020/12/16 08:53:50;;;;;;;30.50;17.63;;;10.70;99.90;;;;;;4998562;28;20564;-70
2020/12/16 08:56:36;;;;;;;30.97;16.50;;;10.80;99.90;;;;;;4999424;28;20426;-70
2020/12/16 08:59:11;;;;;;;34.93;19.00;;;10.80;99.90;;;;;;4999419;28;20434;-69
2020/12/16 09:01:39;;;;;;;30.10;16.87;;;10.80;99.90;;;;;;4998972;28;20858;-69
2020/12/16 09:04:06;;;;;;;26.27;16.00;;;10.80;99.90;;;;;;4998828;28;20474;-69
2020/12/16 09:06:34;;;;;;;28.20;16.03;;;10.80;99.90;;;;;;4998199;28;20468;-69
2020/12/16 09:09:12;;;;;;;27.00;15.90;;;10.80;99.90;;;;;;4999257;28;20807;-70
2020/12/16 09:11:38;;;;;;;35.93;18.43;;;10.80;99.90;;;;;;4998517;28;20464;-70
2020/12/16 09:14:05;;;;;;;36.20;17.00;;;10.80;99.90;;;;;;4997515;28;20488;-69
2020/12/16 09:16:31;;;;;;;31.80;16.30;;;10.80;99.90;;;;;;4994647;28;20837;-69
2020/12/16 09:18:58;;;;;;;32.90;18.47;;;10.80;99.90;;;;;;4997418;28;20456;-69
2020/12/16 09:21:34;;;;;;;32.90;19.37;;;10.80;99.90;;;;;;4995929;28;20450;-69
2020/12/16 09:24:01;;;;;;;35.67;19.77;;;10.80;99.90;;;;;;4997906;28;20900;-70
2020/12/16 09:26:40;;;;;;;53.07;31.47;;;10.90;99.90;;;;;;4995142;28;20441;-65
2020/12/16 09:29:24;;;;;;;65.27;39.00;;;10.90;99.90;;;;;;4996826;28;20453;-67
2020/12/16 09:31:52;;;;;;;65.87;42.57;;;11.00;99.90;;;;;;4996933;28;20545;-68
2020/12/16 09:34:20;;;;;;;85.07;55.13;;;11.20;99.90;;;;;;4997080;28;20529;-68
2020/12/16 09:36:47;;;;;;;78.97;55.53;;;11.40;99.90;;;;;;4996245;28;20449;-68
2020/12/16 09:39:15;;;;;;;92.50;57.77;;;11.60;99.90;;;;;;4995378;28;20458;-67
2020/12/16 09:41:46;;;;;;;95.83;62.27;;;11.80;99.90;;;;;;4996627;28;20500;-63
2020/12/16 09:44:27;;;;;;;166.10;97.07;;;12.00;99.90;;;;;;4997814;28;20521;-64
2020/12/16 09:46:54;;;;;;;201.30;103.87;;;12.10;99.90;;;;;;4994456;28;20533;-66
2020/12/16 09:49:21;;;;;;;198.00;114.70;;;12.10;99.90;;;;;;4995927;28;20533;-63
2020/12/16 09:51:48;;;;;;;199.43;104.93;;;12.20;99.90;;;;;;4996364;28;20453;-63
2020/12/16 09:54:30;;;;;;;154.10;88.50;;;12.10;99.90;;;;;;4997028;28;20521;-62
2020/12/16 09:57:07;;;;;;;110.30;59.20;;;12.00;99.90;;;;;;4993115;28;20499;-63
2020/12/16 09:59:34;;;;;;;108.87;58.27;;;11.90;99.90;;;;;;4994888;28;20477;-62
2020/12/16 10:02:00;;;;;;;65.70;40.73;;;11.90;99.90;;;;;;4996281;28;20481;-63
2020/12/16 10:04:27;;;;;;;58.33;35.40;;;11.80;99.90;;;;;;4996285;28;20480;-64
2020/12/16 10:06:54;;;;;;;46.37;27.93;;;11.80;99.90;;;;;;5000180;28;20441;-65
2020/12/16 10:09:21;;;;;;;53.53;31.10;;;11.70;99.90;;;;;;5000796;28;20485;-67
2020/12/16 10:11:48;;;;;;;44.40;26.73;;;11.70;99.90;;;;;;5000296;28;20495;-66
2020/12/16 10:14:17;;;;;;;35.27;21.10;;;11.70;99.90;;;;;;4996536;28;20462;-65
2020/12/16 10:16:45;;;;;;;48.47;27.77;;;11.70;99.90;;;;;;4999982;28;20615;-66
2020/12/16 10:19:12;;;;;;;30.53;19.90;;;11.70;99.90;;;;;;4999942;28;20465;-65
2020/12/16 10:21:39;;;;;;;31.90;20.43;;;11.70;99.90;;;;;;4999838;28;20465;-65
2020/12/16 10:24:07;;;;;;;33.50;20.87;;;11.70;99.90;;;;;;5001121;28;20457;-66
2020/12/16 10:26:33;;;;;;;43.73;21.07;;;11.80;99.90;;;;;;5000016;28;20541;-65
2020/12/16 10:28:59;;;;;;;43.40;27.37;;;11.90;99.90;;;;;;4999674;28;21022;-65
2020/12/16 10:31:26;;;;;;;51.20;28.77;;;12.00;99.90;;;;;;5000289;28;20545;-65
2020/12/16 10:33:53;;;;;;;41.07;24.80;;;12.00;99.90;;;;;;4999959;28;20446;-65
2020/12/16 10:36:19;;;;;;;32.83;21.60;;;12.00;99.90;;;;;;4999722;28;20859;-66
2020/12/16 10:38:45;;;;;;;34.43;20.10;;;12.00;99.90;;;;;;4999562;28;20455;-66
2020/12/16 10:41:13;;;;;;;25.93;17.17;;;12.00;99.90;;;;;;4980733;28;20478;-65
2020/12/16 10:43:39;;;;;;;29.20;16.50;;;11.90;99.90;;;;;;5011830;28;20482;-66
2020/12/16 10:46:08;;;;;;;27.20;17.30;;;11.90;99.90;;;;;;5009891;28;20790;-68
2020/12/16 10:48:35;;;;;;;27.00;15.67;;;11.90;99.90;;;;;;5008393;28;20496;-70
2020/12/16 10:51:02;;;;;;;22.30;14.40;;;11.80;99.90;;;;;;5005353;28;20878;-71
2020/12/16 10:53:28;;;;;;;25.70;16.10;;;11.80;99.90;;;;;;5005925;28;20545;-70
2020/12/16 10:55:56;;;;;;;30.97;15.70;;;11.80;99.90;;;;;;5008184;28;20859;-71
2020/12/16 10:58:23;;;;;;;22.70;16.17;;;11.80;99.90;;;;;;5008741;28;20541;-71
2020/12/16 11:00:49;;;;;;;24.53;15.80;;;11.80;99.90;;;;;;5012946;28;20514;-71
2020/12/16 11:03:16;;;;;;;24.10;15.00;;;11.80;99.90;;;;;;4997747;28;20580;-71
2020/12/16 11:05:42;;;;;;;25.53;16.37;;;11.80;99.90;;;;;;5003233;28;20525;-70
2020/12/16 11:08:09;;;;;;;23.40;12.90;;;11.80;99.90;;;;;;5011059;28;20524;-70
2020/12/16 11:10:35;;;;;;;22.30;13.83;;;11.90;99.90;;;;;;5005602;28;20449;-71
2020/12/16 11:13:04;;;;;;;19.80;12.77;;;11.90;99.90;;;;;;5009946;28;20449;-71
2020/12/16 11:15:31;;;;;;;21.13;12.10;;;11.90;99.90;;;;;;5006533;28;20457;-71
2020/12/16 11:17:58;;;;;;;20.57;14.80;;;11.90;99.90;;;;;;5003075;28;20467;-70
2020/12/16 11:20:24;;;;;;;25.83;12.97;;;11.80;99.90;;;;;;5006770;28;20481;-71
2020/12/16 11:22:50;;;;;;;20.07;13.47;;;11.80;99.90;;;;;;5009799;28;20577;-71
2020/12/16 11:25:17;;;;;;;26.20;12.60;;;11.90;99.90;;;;;;5011605;28;20530;-70
2020/12/16 11:27:43;;;;;;;20.20;13.80;;;11.90;99.90;;;;;;4995161;28;20482;-71
2020/12/16 11:30:10;;;;;;;22.23;13.87;;;11.80;99.90;;;;;;5001785;28;20525;-70
2020/12/16 11:32:37;;;;;;;32.53;14.90;;;11.80;99.90;;;;;;4998761;28;20438;-73
2020/12/16 11:35:04;;;;;;;25.93;15.07;;;11.80;99.90;;;;;;4997936;28;20525;-71
2020/12/16 11:37:30;;;;;;;33.27;15.07;;;11.80;99.90;;;;;;5001506;28;20482;-71
2020/12/16 11:39:59;;;;;;;24.97;15.33;;;11.70;99.90;;;;;;5012466;28;20509;-71
2020/12/16 11:42:25;;;;;;;22.70;15.03;;;11.70;99.90;;;;;;5001780;28;20543;-72
2020/12/16 11:44:52;;;;;;;27.77;16.40;;;11.60;99.90;;;;;;5001233;28;20466;-71
2020/12/16 11:47:18;;;;;;;31.60;15.50;;;11.70;99.90;;;;;;5011265;28;20472;-71
2020/12/16 11:49:46;;;;;;;26.20;15.00;;;11.60;99.90;;;;;;4998683;28;20450;-71
2020/12/16 11:52:12;;;;;;;24.23;14.73;;;11.60;99.90;;;;;;5000508;28;20946;-70
2020/12/16 11:54:39;;;;;;;21.50;14.97;;;11.60;99.90;;;;;;5000384;28;20581;-71
2020/12/16 11:57:05;;;;;;;29.53;16.50;;;11.60;99.90;;;;;;4996064;28;20481;-70
2020/12/16 11:59:32;;;;;;;24.33;15.20;;;11.50;99.90;;;;;;4999437;28;20484;-71
2020/12/16 12:02:02;;;;;;;20.17;13.20;;;11.50;99.90;;;;;;5181397;23;20482;-70
2020/12/16 12:04:28;;;;;;;30.03;13.40;;;11.50;99.90;;;;;;5000934;28;20783;-70
2020/12/16 12:06:56;;;;;;;20.57;13.40;;;11.50;99.90;;;;;;5004589;28;20461;-70
2020/12/16 12:09:23;;;;;;;24.17;14.00;;;11.50;99.90;;;;;;5002764;28;20540;-70
2020/12/16 12:11:51;;;;;;;27.47;17.47;;;11.50;99.90;;;;;;5009304;28;20524;-67
2020/12/16 12:14:18;;;;;;;27.63;16.30;;;11.50;99.90;;;;;;5008137;28;20839;-67
2020/12/16 12:16:59;;;;;;;24.90;15.00;;;11.40;99.90;;;;;;4962775;28;20778;-66
2020/12/16 12:19:26;;;;;;;24.87;15.17;;;11.40;99.90;;;;;;5005251;28;20467;-66
2020/12/16 12:21:54;;;;;;;23.97;15.30;;;11.40;99.90;;;;;;5009887;28;20604;-66
2020/12/16 12:24:21;;;;;;;22.37;14.43;;;11.50;99.90;;;;;;5003617;28;20547;-69
2020/12/16 12:26:53;;;;;;;23.70;14.80;;;11.50;99.90;;;;;;5004083;28;20450;-67
2020/12/16 12:29:19;;;;;;;27.30;14.50;;;11.40;99.90;;;;;;4998805;28;20470;-67
2020/12/16 12:31:46;;;;;;;22.80;14.73;;;11.50;99.90;;;;;;4995170;28;20977;-67
2020/12/16 12:34:13;;;;;;;24.07;16.37;;;11.50;99.90;;;;;;4999357;28;20469;-67
2020/12/16 12:36:39;;;;;;;23.97;14.23;;;11.60;99.90;;;;;;4989287;28;20427;-67
2020/12/16 12:39:07;;;;;;;25.77;16.27;;;11.60;99.90;;;;;;4997869;28;20497;-67
2020/12/16 12:41:34;;;;;;;24.90;14.17;;;11.50;99.90;;;;;;4995643;28;20478;-66